Time;durP1;ratioP1;P1;durP2;ratioP2;P2;SDS_P1;SDS_P2;PMS_P1;PMS_P2;Temp;Humidity;BMP_temperature;BMP_pressure;BME280_temperature;BME280_humidity;BME280_pressure;Samples;Min_cycle;Max_cycle;Signal;HPM_P1;HPM_P2
2021/04/15 00:00:23;;;;;;;10.70;7.30;;;4.50;85.90;;;;;;5024950;28;20119;-58
2021/04/15 00:02:49;;;;;;;9.63;6.88;;;4.60;85.60;;;;;;5043048;28;20040;-59
2021/04/15 00:05:27;;;;;;;7.85;6.60;;;4.80;84.90;;;;;;5049724;28;20037;-55
2021/04/15 00:07:54;;;;;;;10.95;6.65;;;4.60;85.60;;;;;;5032796;28;20034;-56
2021/04/15 00:10:23;;;;;;;10.25;6.25;;;4.60;85.30;;;;;;5032961;28;20041;-58
2021/04/15 00:12:48;;;;;;;7.75;6.15;;;4.60;84.90;;;;;;5034756;28;20026;-58
2021/04/15 00:15:15;;;;;;;9.02;6.88;;;4.50;85.70;;;;;;5034338;28;20048;-58
2021/04/15 00:17:41;;;;;;;11.43;6.90;;;4.20;86.40;;;;;;5038220;28;20040;-57
2021/04/15 00:20:08;;;;;;;10.18;7.07;;;4.40;86.10;;;;;;5033764;28;20045;-56
2021/04/15 00:22:34;;;;;;;7.75;6.60;;;4.50;85.50;;;;;;5044028;28;20021;-56
2021/04/15 00:25:00;;;;;;;7.93;6.00;;;4.40;86.20;;;;;;5035357;28;20037;-56
2021/04/15 00:27:26;;;;;;;10.27;6.97;;;4.50;85.60;;;;;;5043661;28;20037;-56
2021/04/15 00:29:52;;;;;;;11.82;6.95;;;4.40;86.10;;;;;;5031634;28;20026;-57
2021/04/15 00:32:17;;;;;;;11.18;7.10;;;4.40;86.40;;;;;;5042646;28;20039;-61
2021/04/15 00:34:43;;;;;;;11.93;7.53;;;4.50;85.80;;;;;;5030093;28;20095;-59
2021/04/15 00:37:09;;;;;;;11.48;7.20;;;4.50;85.70;;;;;;5036081;28;20049;-58
2021/04/15 00:39:34;;;;;;;9.18;6.85;;;4.60;85.70;;;;;;5042818;28;20524;-56
2021/04/15 00:42:00;;;;;;;9.32;6.30;;;4.50;85.50;;;;;;5034561;28;20036;-58
2021/04/15 00:44:25;;;;;;;8.82;6.50;;;4.60;85.70;;;;;;5034563;28;20105;-58
2021/04/15 00:47:08;;;;;;;9.68;7.28;;;4.50;85.60;;;;;;5021248;28;20041;-60
2021/04/15 00:49:35;;;;;;;8.40;6.82;;;4.40;85.80;;;;;;5052615;28;20036;-58
2021/04/15 00:52:06;;;;;;;9.48;6.82;;;4.40;86.30;;;;;;5031894;28;20018;-57
2021/04/15 00:54:42;;;;;;;7.93;6.47;;;4.50;86.10;;;;;;5023049;28;20022;-59
2021/04/15 00:57:18;;;;;;;10.65;6.93;;;4.40;86.30;;;;;;5036877;28;20029;-60
2021/04/15 00:59:43;;;;;;;10.60;6.80;;;4.50;85.90;;;;;;5040715;28;20053;-58
2021/04/15 01:02:12;;;;;;;9.80;6.88;;;4.40;86.40;;;;;;5043557;28;20061;-59
2021/04/15 01:04:38;;;;;;;10.02;6.60;;;4.40;86.50;;;;;;5041267;28;20029;-58
2021/04/15 01:07:05;;;;;;;9.93;7.00;;;4.40;86.10;;;;;;5019762;28;20513;-58
2021/04/15 01:09:31;;;;;;;10.57;6.97;;;4.50;85.90;;;;;;5032507;28;20509;-56
2021/04/15 01:12:23;;;;;;;11.32;6.88;;;4.50;86.00;;;;;;5014750;28;20026;-58
2021/04/15 01:15:22;;;;;;;11.50;6.40;;;4.40;86.40;;;;;;5026705;28;20508;-57
2021/04/15 01:17:51;;;;;;;14.00;7.63;;;4.10;87.70;;;;;;5037844;28;20431;-54
2021/04/15 01:20:20;;;;;;;8.73;6.60;;;4.20;87.60;;;;;;5037088;28;20045;-57
2021/04/15 01:23:10;;;;;;;11.43;6.80;;;4.20;87.50;;;;;;5035749;28;20409;-59
2021/04/15 01:25:52;;;;;;;9.35;6.68;;;4.10;87.90;;;;;;5034060;28;20052;-58
2021/04/15 01:28:20;;;;;;;9.25;6.72;;;4.30;87.10;;;;;;5041954;28;20080;-58
2021/04/15 01:30:50;;;;;;;12.05;7.00;;;4.30;87.20;;;;;;5036350;28;20041;-59
2021/04/15 01:33:38;;;;;;;7.65;6.30;;;4.20;87.60;;;;;;5026565;28;20040;-59
2021/04/15 01:36:11;;;;;;;11.52;6.38;;;4.30;87.00;;;;;;5019874;28;20028;-57
2021/04/15 01:38:44;;;;;;;9.00;6.57;;;4.50;86.50;;;;;;5044428;28;20234;-59
2021/04/15 01:41:29;;;;;;;8.43;6.28;;;4.40;86.80;;;;;;5034726;28;20091;-59
2021/04/15 01:44:01;;;;;;;8.70;6.50;;;4.40;86.90;;;;;;5024458;28;20041;-59
2021/04/15 01:46:32;;;;;;;10.23;6.65;;;4.50;86.50;;;;;;5017340;28;20048;-56
2021/04/15 01:48:59;;;;;;;13.20;7.30;;;4.50;86.50;;;;;;5045772;28;20032;-60
2021/04/15 01:51:46;;;;;;;13.27;7.30;;;4.50;86.50;;;;;;5033628;28;20029;-56
2021/04/15 01:54:33;;;;;;;10.32;7.93;;;4.40;86.30;;;;;;5033616;28;20029;-58
2021/04/15 01:57:30;;;;;;;10.13;6.72;;;4.30;86.90;;;;;;5019148;28;20033;-54
2021/04/15 02:00:05;;;;;;;12.25;6.65;;;4.20;86.70;;;;;;5025184;28;20049;-55
2021/04/15 02:02:35;;;;;;;;;;;4.30;87.00;;;;;;5025542;28;20029;-58
2021/04/15 02:05:09;;;;;;;10.88;7.18;;;4.20;87.00;;;;;;5033898;28;20319;-58
2021/04/15 02:07:44;;;;;;;8.98;7.45;;;4.40;86.80;;;;;;5027208;28;20029;-57
2021/04/15 02:10:13;;;;;;;12.38;7.03;;;4.30;86.40;;;;;;5023070;28;20043;-61
2021/04/15 02:12:43;;;;;;;11.77;6.72;;;4.40;86.40;;;;;;5045189;28;20055;-58
2021/04/15 02:15:41;;;;;;;10.73;7.60;;;4.30;86.70;;;;;;5039198;28;20045;-58
2021/04/15 02:18:07;;;;;;;11.75;7.72;;;4.20;87.10;;;;;;5035569;28;20551;-57
2021/04/15 02:20:33;;;;;;;11.77;7.57;;;4.20;87.00;;;;;;5026778;28;20030;-57
2021/04/15 02:23:22;;;;;;;11.82;7.47;;;4.20;87.40;;;;;;5023405;28;20109;-57
2021/04/15 02:26:05;;;;;;;8.48;6.65;;;4.20;87.60;;;;;;5032723;28;20041;-55
2021/04/15 02:28:49;;;;;;;10.80;7.47;;;4.20;87.60;;;;;;5027997;28;20116;-59
2021/04/15 02:31:24;;;;;;;10.20;7.72;;;4.20;87.60;;;;;;5028214;28;20103;-58
2021/04/15 02:34:00;;;;;;;10.25;7.70;;;4.20;87.70;;;;;;5041652;28;20112;-61
2021/04/15 02:36:32;;;;;;;9.00;7.43;;;4.20;87.70;;;;;;5019979;28;20381;-58
2021/04/15 02:39:21;;;;;;;9.07;7.43;;;4.10;87.80;;;;;;5037401;28;20033;-59
2021/04/15 02:41:49;;;;;;;11.30;7.93;;;4.20;87.60;;;;;;5027404;28;20037;-56
2021/04/15 02:44:23;;;;;;;15.77;8.13;;;4.20;86.90;;;;;;5040110;28;20029;-58
2021/04/15 02:46:57;;;;;;;13.27;8.02;;;4.20;87.20;;;;;;5039125;28;20025;-58
2021/04/15 02:49:26;;;;;;;14.80;7.82;;;4.10;87.30;;;;;;5024718;28;20038;-58
2021/04/15 02:52:00;;;;;;;12.25;7.75;;;4.10;87.50;;;;;;5017008;28;20032;-59
2021/04/15 02:54:57;;;;;;;11.07;7.82;;;4.10;88.00;;;;;;5032261;28;20037;-57
2021/04/15 02:57:27;;;;;;;12.27;7.57;;;4.10;87.80;;;;;;5025192;28;20033;-58
2021/04/15 03:00:08;;;;;;;13.45;8.43;;;4.00;88.00;;;;;;5025452;28;20523;-54
2021/04/15 03:02:42;;;;;;;10.63;8.20;;;4.10;87.70;;;;;;5015714;28;20021;-57
2021/04/15 03:05:20;;;;;;;9.23;7.55;;;4.10;87.60;;;;;;5043975;28;20032;-58
2021/04/15 03:07:48;;;;;;;13.85;7.60;;;4.00;88.20;;;;;;5042131;28;20051;-58
2021/04/15 03:10:18;;;;;;;9.80;7.35;;;3.90;88.40;;;;;;5032698;28;20029;-59
2021/04/15 03:12:52;;;;;;;12.18;8.10;;;3.80;88.60;;;;;;5036640;28;20485;-57
2021/04/15 03:15:23;;;;;;;11.27;7.80;;;3.90;88.30;;;;;;5041793;28;20033;-59
2021/04/15 03:17:53;;;;;;;13.30;7.85;;;3.90;88.10;;;;;;5036461;28;20028;-59
2021/04/15 03:20:27;;;;;;;10.88;7.60;;;3.90;87.90;;;;;;5032250;28;20042;-58
2021/04/15 03:23:00;;;;;;;12.85;9.30;;;3.90;87.90;;;;;;5023430;28;20056;-58
2021/04/15 03:25:26;;;;;;;12.32;8.05;;;3.90;88.00;;;;;;5037256;28;20124;-57
2021/04/15 03:27:59;;;;;;;12.50;7.72;;;3.80;88.00;;;;;;5029018;28;20037;-60
2021/04/15 03:30:31;;;;;;;13.60;8.60;;;3.90;87.90;;;;;;5033668;28;20017;-58
2021/04/15 03:33:01;;;;;;;10.13;8.77;;;3.80;87.90;;;;;;5041995;28;20032;-57
2021/04/15 03:35:42;;;;;;;11.10;7.88;;;4.00;87.50;;;;;;5017191;28;20125;-58
2021/04/15 03:38:28;;;;;;;12.63;8.18;;;4.00;87.40;;;;;;5025513;28;20049;-57
2021/04/15 03:40:58;;;;;;;12.27;8.50;;;4.00;87.70;;;;;;5038333;28;20040;-57
2021/04/15 03:43:25;;;;;;;19.00;10.27;;;4.00;87.70;;;;;;5037698;28;20522;-56
2021/04/15 03:46:13;;;;;;;12.85;9.23;;;3.90;87.80;;;;;;5019918;28;20026;-57
2021/04/15 03:48:45;;;;;;;10.95;8.18;;;3.90;87.60;;;;;;5044498;28;20064;-59
2021/04/15 03:51:16;;;;;;;15.30;7.97;;;3.80;87.90;;;;;;5036991;28;20033;-59
2021/04/15 03:53:56;;;;;;;12.73;8.38;;;3.90;87.90;;;;;;5037960;28;20563;-58
2021/04/15 03:56:44;;;;;;;11.65;8.00;;;3.90;87.70;;;;;;5038023;28;20052;-57
2021/04/15 03:59:16;;;;;;;10.63;8.18;;;3.80;87.50;;;;;;5013281;28;20113;-58
2021/04/15 04:01:48;;;;;;;13.05;7.93;;;3.80;88.10;;;;;;5058726;28;20404;-57
2021/04/15 04:04:27;;;;;;;11.88;7.55;;;3.70;87.90;;;;;;5038135;28;20034;-58
2021/04/15 04:06:55;;;;;;;11.10;8.30;;;3.70;88.20;;;;;;5032146;28;20050;-56
2021/04/15 04:09:32;;;;;;;12.60;8.57;;;3.70;87.90;;;;;;5034698;28;20030;-56
2021/04/15 04:12:01;;;;;;;10.40;8.32;;;3.70;87.90;;;;;;5015657;28;20429;-58
2021/04/15 04:14:36;;;;;;;14.32;9.18;;;3.70;87.50;;;;;;5018713;28;20082;-59
2021/04/15 04:17:04;;;;;;;;;;;3.70;87.60;;;;;;5042409;28;20029;-55
2021/04/15 04:19:37;;;;;;;11.75;8.55;;;3.70;88.00;;;;;;5026882;28;19967;-56
2021/04/15 04:22:23;;;;;;;11.98;8.38;;;3.60;88.00;;;;;;5050905;28;20494;-56
2021/04/15 04:25:08;;;;;;;11.43;7.85;;;3.70;87.70;;;;;;5031630;28;20045;-57
2021/04/15 04:27:38;;;;;;;;;;;3.70;87.60;;;;;;5041267;28;20068;-58
2021/04/15 04:30:11;;;;;;;11.68;8.30;;;3.50;88.70;;;;;;5030709;28;19913;-57
2021/04/15 04:32:39;;;;;;;11.73;8.80;;;3.10;90.00;;;;;;5034409;28;20046;-58
2021/04/15 04:35:07;;;;;;;15.98;8.90;;;3.20;90.10;;;;;;5017721;28;20051;-57
2021/04/15 04:37:42;;;;;;;15.18;9.32;;;3.40;89.20;;;;;;5019060;28;20032;-59
2021/04/15 04:40:21;;;;;;;11.05;8.25;;;3.50;88.50;;;;;;5036649;28;20038;-60
2021/04/15 04:43:02;;;;;;;11.45;9.25;;;3.50;88.00;;;;;;5037803;28;20032;-58
2021/04/15 04:45:29;;;;;;;16.73;9.65;;;3.50;88.70;;;;;;5019348;28;20045;-59
2021/04/15 04:48:19;;;;;;;14.88;10.60;;;3.50;88.90;;;;;;5026521;28;20062;-60
2021/04/15 04:50:50;;;;;;;13.93;9.40;;;3.40;89.30;;;;;;5020490;28;20029;-59
2021/04/15 04:53:25;;;;;;;17.55;10.05;;;3.40;89.00;;;;;;5028905;28;20064;-57
2021/04/15 04:56:07;;;;;;;15.25;10.32;;;3.30;89.70;;;;;;5021687;28;20493;-58
2021/04/15 04:58:33;;;;;;;15.90;9.60;;;3.20;89.90;;;;;;5031248;28;20039;-57
2021/04/15 05:00:59;;;;;;;17.33;11.27;;;3.30;89.50;;;;;;5047233;28;20033;-58
2021/04/15 05:03:26;;;;;;;18.02;9.68;;;3.20;90.10;;;;;;5034112;28;20029;-59
2021/04/15 05:06:06;;;;;;;14.95;9.82;;;3.20;90.00;;;;;;5025533;28;20426;-57
2021/04/15 05:09:09;;;;;;;16.20;9.88;;;3.20;90.00;;;;;;5022755;28;20025;-55
2021/04/15 05:11:37;;;;;;;15.18;10.50;;;3.20;90.00;;;;;;5026122;28;20030;-56
2021/04/15 05:14:05;;;;;;;20.30;12.40;;;3.30;89.90;;;;;;5044062;28;20029;-59
2021/04/15 05:17:04;;;;;;;15.80;10.73;;;3.30;89.60;;;;;;5040356;28;20032;-58
2021/04/15 05:19:32;;;;;;;14.05;10.55;;;3.40;89.60;;;;;;5005367;28;20041;-59
2021/04/15 05:22:00;;;;;;;12.63;9.38;;;3.50;89.30;;;;;;5023472;28;20034;-60
2021/04/15 05:24:45;;;;;;;16.17;10.07;;;3.60;88.70;;;;;;5040913;28;20396;-59
2021/04/15 05:27:12;;;;;;;15.70;10.02;;;3.70;88.50;;;;;;5043295;28;20033;-60
2021/04/15 05:29:43;;;;;;;16.58;10.20;;;3.50;88.60;;;;;;5040902;28;20026;-60
2021/04/15 05:32:14;;;;;;;18.17;9.98;;;3.70;88.10;;;;;;5030879;28;20672;-59
2021/04/15 05:34:56;;;;;;;14.88;9.63;;;3.70;88.10;;;;;;5034090;28;20057;-57
2021/04/15 05:37:29;;;;;;;15.77;10.00;;;3.60;88.50;;;;;;5014299;28;20045;-60
2021/04/15 05:40:07;;;;;;;14.88;10.35;;;3.80;87.30;;;;;;5035706;28;20038;-58
2021/04/15 05:43:02;;;;;;;14.25;9.60;;;3.60;87.90;;;;;;5021116;28;20028;-60
2021/04/15 05:45:38;;;;;;;;;;;3.60;87.30;;;;;;5042814;28;20488;-59
2021/04/15 05:48:24;;;;;;;14.90;9.00;;;3.50;87.70;;;;;;5018708;28;19928;-58
2021/04/15 05:51:07;;;;;;;14.38;9.27;;;3.60;87.80;;;;;;5021899;28;20029;-59
2021/04/15 05:53:52;;;;;;;12.70;8.32;;;3.60;87.30;;;;;;5036635;28;20025;-58
2021/04/15 05:56:37;;;;;;;11.73;9.00;;;3.50;87.50;;;;;;5038575;28;20507;-59
2021/04/15 06:00:02;;;;;;;13.63;9.70;;;3.40;88.20;;;;;;5034083;28;20029;-53
2021/04/15 06:02:50;;;;;;;15.20;9.25;;;3.30;88.90;;;;;;5032542;28;20020;-52
2021/04/15 06:05:43;;;;;;;13.68;9.30;;;3.30;88.20;;;;;;5042744;28;20029;-56
2021/04/15 06:08:15;;;;;;;12.02;8.65;;;3.40;88.00;;;;;;5024875;28;20036;-59
2021/04/15 06:10:51;;;;;;;14.27;9.35;;;3.50;88.30;;;;;;5040548;28;20458;-59
2021/04/15 06:13:44;;;;;;;13.23;9.60;;;3.60;87.90;;;;;;5030004;28;20580;-59
2021/04/15 06:16:31;;;;;;;10.95;8.65;;;3.80;87.30;;;;;;5044762;28;20674;-58
2021/04/15 06:19:20;;;;;;;16.85;9.05;;;3.90;86.40;;;;;;5032670;28;20491;-59
2021/04/15 06:24:43;;;;;;;15.48;9.18;;;4.20;85.70;;;;;;5033737;28;20021;-58
2021/04/15 06:27:14;;;;;;;14.35;8.85;;;3.90;85.50;;;;;;5030968;28;20072;-60
2021/04/15 06:29:43;;;;;;;13.07;9.55;;;3.90;86.20;;;;;;5034166;28;20037;-56
2021/04/15 06:32:19;;;;;;;14.32;9.13;;;4.00;86.00;;;;;;5031769;28;20024;-58
2021/04/15 06:34:57;;;;;;;12.30;9.23;;;3.90;86.10;;;;;;5031704;28;20071;-59
2021/04/15 06:41:30;;;;;;;15.65;9.10;;;4.10;84.90;;;;;;5037799;28;20408;-58
2021/04/15 06:44:14;;;;;;;13.32;9.23;;;3.90;86.00;;;;;;5013976;28;20501;-57
2021/04/15 06:47:19;;;;;;;14.15;9.63;;;3.70;87.40;;;;;;5030871;28;20052;-58
2021/04/15 06:50:07;;;;;;;11.35;8.43;;;3.90;86.30;;;;;;5028438;28;20021;-58
2021/04/15 06:52:54;;;;;;;16.60;9.43;;;3.90;86.30;;;;;;5030718;28;20114;-56
2021/04/15 06:55:50;;;;;;;12.75;9.43;;;3.70;87.70;;;;;;5032647;28;20421;-59
2021/04/15 06:58:22;;;;;;;10.82;8.18;;;3.80;87.90;;;;;;5035044;28;20081;-57
2021/04/15 07:01:10;;;;;;;11.73;7.70;;;4.10;86.10;;;;;;5033075;28;20033;-60
2021/04/15 07:04:02;;;;;;;11.00;7.28;;;4.20;83.50;;;;;;5037765;28;20053;-58
2021/04/15 07:06:55;;;;;;;12.30;7.25;;;4.30;82.60;;;;;;5031898;28;20481;-59
2021/04/15 07:09:59;;;;;;;13.73;7.55;;;4.40;82.40;;;;;;5037202;28;20025;-59
2021/04/15 07:12:52;;;;;;;7.90;5.65;;;4.60;82.20;;;;;;5034019;28;20021;-57
2021/04/15 07:15:41;;;;;;;11.70;7.13;;;4.70;80.30;;;;;;5034847;28;20629;-57
2021/04/15 07:22:25;;;;;;;12.07;7.00;;;5.10;79.60;;;;;;5041472;28;20520;-58
2021/04/15 07:25:14;;;;;;;10.32;7.10;;;5.00;80.10;;;;;;5021353;28;20042;-59
2021/04/15 07:28:11;;;;;;;10.10;6.50;;;5.00;79.60;;;;;;5039434;28;20404;-57
2021/04/15 07:31:00;;;;;;;11.82;6.15;;;5.10;79.90;;;;;;5044779;28;20039;-59
2021/04/15 07:33:38;;;;;;;12.65;6.30;;;5.30;79.50;;;;;;5038593;28;20029;-58
2021/04/15 07:36:43;;;;;;;10.07;6.30;;;5.20;79.60;;;;;;5033858;28;20057;-58
2021/04/15 07:39:45;;;;;;;6.93;4.80;;;5.40;78.90;;;;;;5030815;28;20431;-59
2021/04/15 07:42:47;;;;;;;6.57;4.50;;;5.60;75.00;;;;;;5035727;28;20083;-57
2021/04/15 07:45:45;;;;;;;6.35;4.55;;;5.50;74.20;;;;;;5034060;28;20045;-60
2021/04/15 07:49:04;;;;;;;8.95;4.68;;;5.70;74.00;;;;;;5049649;28;20060;-60
2021/04/15 07:52:04;;;;;;;9.30;5.13;;;5.90;73.00;;;;;;5040883;28;20523;-57
2021/04/15 07:55:22;;;;;;;10.93;5.20;;;5.70;73.50;;;;;;5020658;28;20101;-59
2021/04/15 07:57:53;;;;;;;13.07;5.47;;;5.70;74.20;;;;;;5034199;28;20041;-59
2021/04/15 08:00:40;;;;;;;9.75;6.47;;;5.90;73.70;;;;;;5035442;28;20508;-58
2021/04/15 08:03:27;;;;;;;11.00;5.45;;;5.80;73.90;;;;;;5031761;28;20104;-54
2021/04/15 08:06:25;;;;;;;10.55;5.28;;;5.60;74.80;;;;;;5031660;28;20030;-59
2021/04/15 08:09:30;;;;;;;7.28;5.47;;;5.70;74.40;;;;;;5035733;28;20025;-59
2021/04/15 08:12:29;;;;;;;8.68;5.47;;;5.80;75.00;;;;;;5029897;28;20045;-60
2021/04/15 08:15:26;;;;;;;10.38;6.25;;;5.90;75.00;;;;;;5036157;28;20535;-61
2021/04/15 08:18:34;;;;;;;13.93;5.50;;;6.00;74.30;;;;;;5035321;28;20029;-59
2021/04/15 08:21:11;;;;;;;8.32;5.93;;;6.00;74.20;;;;;;5033990;28;20033;-59
2021/04/15 08:24:27;;;;;;;12.05;6.70;;;5.70;74.80;;;;;;5035132;28;20140;-59
2021/04/15 08:27:30;;;;;;;13.30;6.10;;;5.80;75.10;;;;;;5040563;28;20037;-58
2021/04/15 08:30:25;;;;;;;9.15;5.78;;;5.90;74.30;;;;;;5052616;28;20028;-58
2021/04/15 08:33:26;;;;;;;9.15;5.20;;;6.00;73.20;;;;;;5043521;28;20017;-57
2021/04/15 08:36:17;;;;;;;10.13;5.50;;;6.00;73.40;;;;;;5037228;28;20037;-58
2021/04/15 08:39:07;;;;;;;13.63;6.50;;;6.00;73.50;;;;;;5033705;28;20033;-59
2021/04/15 08:41:52;;;;;;;15.23;6.45;;;5.90;73.20;;;;;;5032596;28;20025;-58
2021/04/15 08:44:21;;;;;;;;;;;6.20;72.40;;;;;;5036941;28;20033;-56
2021/04/15 08:47:06;;;;;;;9.57;5.53;;;6.40;70.80;;;;;;5033273;28;20336;-59
2021/04/15 08:49:59;;;;;;;7.82;5.63;;;6.50;69.30;;;;;;5033867;28;20083;-58
2021/04/15 08:52:45;;;;;;;13.05;5.10;;;6.30;69.70;;;;;;5035488;28;20140;-58
2021/04/15 08:55:23;;;;;;;10.57;4.90;;;6.40;70.40;;;;;;5037882;28;20029;-59
2021/04/15 08:58:06;;;;;;;8.80;4.53;;;6.50;68.00;;;;;;5029470;28;20049;-60
2021/04/15 09:01:07;;;;;;;5.78;4.40;;;6.60;68.60;;;;;;5028573;28;20645;-59
2021/04/15 09:07:12;;;;;;;9.90;4.93;;;6.60;68.90;;;;;;5031411;28;20033;-55
2021/04/15 09:10:17;;;;;;;6.15;3.58;;;6.80;69.10;;;;;;5031487;28;20249;-58
2021/04/15 09:12:52;;;;;;;9.98;3.97;;;7.00;63.30;;;;;;5045293;28;20047;-60
2021/04/15 09:18:43;;;;;;;6.32;3.50;;;7.00;67.00;;;;;;5034911;28;20100;-58
2021/04/15 09:21:50;;;;;;;6.60;3.90;;;7.20;65.40;;;;;;5029993;28;20021;-54
2021/04/15 09:24:32;;;;;;;4.43;3.47;;;7.20;63.80;;;;;;5042040;28;20025;-59
2021/04/15 09:27:15;;;;;;;4.30;3.45;;;7.30;62.30;;;;;;5037999;28;20225;-58
2021/04/15 09:30:21;;;;;;;6.03;3.28;;;7.30;61.90;;;;;;5029666;28;20033;-59
2021/04/15 09:33:47;;;;;;;7.22;3.00;;;7.60;61.40;;;;;;5019329;28;20033;-57
2021/04/15 09:36:46;;;;;;;5.45;3.10;;;7.60;59.10;;;;;;4973807;28;20094;-58
2021/04/15 09:39:29;;;;;;;6.50;3.65;;;7.40;58.70;;;;;;5033300;28;20071;-61
2021/04/15 09:42:49;;;;;;;6.70;3.83;;;7.40;60.10;;;;;;5044380;28;20025;-58
2021/04/15 09:45:36;;;;;;;5.30;2.67;;;7.60;59.70;;;;;;5023640;28;20041;-58
2021/04/15 09:48:22;;;;;;;6.72;2.60;;;7.30;55.90;;;;;;5048702;28;20052;-57
2021/04/15 09:50:58;;;;;;;4.30;2.78;;;7.30;56.60;;;;;;5047094;28;20048;-56
2021/04/15 09:54:07;;;;;;;5.50;2.72;;;7.30;57.20;;;;;;5052115;28;20017;-56
2021/04/15 09:57:02;;;;;;;6.20;3.35;;;7.50;57.00;;;;;;5026927;28;20036;-59
2021/04/15 09:59:37;;;;;;;8.02;3.22;;;7.70;57.10;;;;;;5030244;28;20493;-59
2021/04/15 10:02:22;;;;;;;7.00;3.17;;;7.80;57.50;;;;;;5035750;28;20112;-60
2021/04/15 10:05:04;;;;;;;7.78;3.25;;;8.00;59.00;;;;;;5041843;28;20551;-59
2021/04/15 10:07:37;;;;;;;4.20;2.95;;;8.20;58.70;;;;;;5029792;28;20041;-59
2021/04/15 10:10:24;;;;;;;3.67;2.67;;;8.20;56.10;;;;;;5048919;28;20484;-60
2021/04/15 10:13:15;;;;;;;5.72;2.88;;;8.10;55.10;;;;;;5042607;28;20037;-59
2021/04/15 10:15:55;;;;;;;4.07;2.80;;;8.00;55.50;;;;;;5033937;28;20033;-59
2021/04/15 10:18:52;;;;;;;4.93;3.20;;;8.20;55.00;;;;;;5050095;28;20049;-59
2021/04/15 10:21:59;;;;;;;5.32;3.08;;;8.10;55.30;;;;;;5044488;28;20671;-59
2021/04/15 10:24:40;;;;;;;4.50;3.13;;;8.20;55.50;;;;;;5030834;28;20025;-59
2021/04/15 10:27:43;;;;;;;4.22;3.20;;;8.50;55.70;;;;;;5042539;28;20033;-59
2021/04/15 10:30:26;;;;;;;7.43;3.42;;;8.40;54.80;;;;;;5049603;28;20021;-57
2021/04/15 10:33:08;;;;;;;5.68;3.10;;;8.20;55.20;;;;;;5038401;28;20033;-58
2021/04/15 10:35:55;;;;;;;18.50;4.45;;;8.20;54.50;;;;;;5039741;28;20113;-59
2021/04/15 10:38:54;;;;;;;4.97;3.10;;;8.20;54.90;;;;;;5034738;28;20040;-55
2021/04/15 10:41:48;;;;;;;4.32;3.38;;;8.50;54.40;;;;;;5041088;28;20029;-58
2021/04/15 10:44:24;;;;;;;7.38;3.30;;;8.60;52.60;;;;;;5046090;28;20029;-57
2021/04/15 10:47:04;;;;;;;4.93;3.10;;;8.70;52.70;;;;;;5038924;28;20112;-59
2021/04/15 10:49:32;;;;;;;3.88;2.60;;;8.50;51.70;;;;;;5040272;28;20021;-60
2021/04/15 10:52:16;;;;;;;4.70;2.90;;;8.60;51.50;;;;;;5031668;28;20516;-56
2021/04/15 10:54:44;;;;;;;6.00;2.70;;;8.70;51.60;;;;;;5017015;28;20390;-58
2021/04/15 10:57:33;;;;;;;3.83;2.85;;;8.80;51.10;;;;;;5043284;28;20104;-59
2021/04/15 11:00:35;;;;;;;5.00;3.38;;;8.40;51.00;;;;;;5035816;28;20036;-60
2021/04/15 11:03:16;;;;;;;3.47;2.65;;;8.50;51.60;;;;;;5045688;28;20464;-59
2021/04/15 11:05:52;;;;;;;7.47;5.07;;;8.60;51.40;;;;;;5037975;28;20052;-58
2021/04/15 11:08:24;;;;;;;4.25;3.20;;;8.50;51.60;;;;;;5034133;28;20045;-58
2021/04/15 11:11:06;;;;;;;4.72;2.85;;;8.60;50.90;;;;;;5034671;28;20103;-59
2021/04/15 11:13:32;;;;;;;4.22;2.70;;;8.30;50.30;;;;;;5030970;28;20029;-58
2021/04/15 11:16:01;;;;;;;4.13;2.65;;;8.10;50.70;;;;;;5031324;28;20033;-59
2021/04/15 11:18:35;;;;;;;4.40;2.50;;;8.30;51.30;;;;;;5031971;28;20045;-58
2021/04/15 11:21:12;;;;;;;6.43;3.30;;;8.50;50.70;;;;;;5031187;28;20531;-57
2021/04/15 11:23:38;;;;;;;4.05;2.70;;;8.80;50.70;;;;;;5030540;28;20187;-58
2021/04/15 11:26:29;;;;;;;4.85;3.28;;;8.90;49.40;;;;;;5029521;28;20802;-59
2021/04/15 11:28:59;;;;;;;7.15;3.25;;;8.80;49.60;;;;;;5028240;28;20029;-58
2021/04/15 11:31:38;;;;;;;8.95;3.40;;;8.90;50.30;;;;;;5032530;28;20044;-58
2021/04/15 11:34:07;;;;;;;4.65;3.00;;;8.90;49.80;;;;;;5030668;28;20103;-57
2021/04/15 11:36:35;;;;;;;4.28;3.20;;;8.90;49.50;;;;;;5032062;28;20041;-59
2021/04/15 11:39:04;;;;;;;4.25;3.28;;;8.80;49.60;;;;;;5029161;28;20120;-58
2021/04/15 11:41:41;;;;;;;4.78;3.15;;;8.70;50.10;;;;;;5031595;28;20021;-59
2021/04/15 11:44:09;;;;;;;5.22;2.70;;;8.70;49.40;;;;;;5030547;28;20401;-60
2021/04/15 11:46:40;;;;;;;4.63;2.80;;;8.60;49.90;;;;;;5032079;28;20087;-60
2021/04/15 11:49:16;;;;;;;5.25;3.13;;;8.60;49.50;;;;;;5026013;28;20397;-57
2021/04/15 11:52:01;;;;;;;4.32;2.47;;;8.50;48.50;;;;;;5028146;28;20032;-59
2021/04/15 11:54:43;;;;;;;6.30;2.75;;;8.30;49.10;;;;;;5039254;28;20037;-62
2021/04/15 11:57:26;;;;;;;5.65;2.97;;;8.30;50.10;;;;;;5026716;28;20811;-60
2021/04/15 12:00:04;;;;;;;4.60;2.85;;;8.30;49.80;;;;;;5024618;28;20037;-58
2021/04/15 12:02:39;;;;;;;5.45;2.80;;;8.20;49.70;;;;;;5023044;28;20113;-60
2021/04/15 12:05:11;;;;;;;4.45;2.60;;;8.40;49.70;;;;;;5034080;28;20083;-61
2021/04/15 12:07:39;;;;;;;8.40;3.03;;;8.50;50.30;;;;;;5034805;28;20378;-60
2021/04/15 12:10:07;;;;;;;3.80;2.53;;;8.20;50.80;;;;;;5043046;28;20029;-61
2021/04/15 12:12:37;;;;;;;6.30;2.80;;;8.10;49.70;;;;;;5028637;28;20057;-59
2021/04/15 12:15:08;;;;;;;4.38;2.50;;;8.30;50.50;;;;;;5027651;28;20022;-60
2021/04/15 12:17:39;;;;;;;4.75;2.78;;;8.30;50.10;;;;;;5034522;28;20037;-59
2021/04/15 12:20:19;;;;;;;2.75;2.15;;;8.50;49.80;;;;;;5030068;28;20454;-60
2021/04/15 12:22:53;;;;;;;3.40;2.58;;;8.60;50.70;;;;;;5041526;28;20048;-61
2021/04/15 12:25:26;;;;;;;5.03;2.50;;;8.80;51.30;;;;;;5044409;28;20041;-59
2021/04/15 12:28:04;;;;;;;3.38;2.50;;;8.90;50.90;;;;;;5034583;28;20045;-59
2021/04/15 12:30:32;;;;;;;3.67;2.67;;;9.10;51.00;;;;;;5032527;28;20105;-58
2021/04/15 12:33:11;;;;;;;6.18;2.53;;;8.90;50.90;;;;;;5040885;28;20025;-61
2021/04/15 12:36:03;;;;;;;3.40;2.70;;;8.60;51.00;;;;;;5019931;28;20026;-61
2021/04/15 12:38:36;;;;;;;6.43;3.03;;;8.30;51.50;;;;;;5047233;28;20041;-59
2021/04/15 12:41:07;;;;;;;5.28;2.80;;;8.30;52.40;;;;;;5031117;28;20633;-60
2021/04/15 12:43:48;;;;;;;5.55;2.70;;;8.40;52.80;;;;;;5027458;28;20093;-60
2021/04/15 12:46:18;;;;;;;3.42;2.30;;;8.60;53.00;;;;;;5022136;28;20497;-60
2021/04/15 12:49:04;;;;;;;3.30;2.47;;;8.60;53.20;;;;;;5015980;28;20586;-60
2021/04/15 12:51:50;;;;;;;4.03;2.63;;;8.60;52.30;;;;;;5026788;28;20029;-60
2021/04/15 12:54:17;;;;;;;4.72;2.47;;;8.70;52.60;;;;;;5025879;28;20026;-59
2021/04/15 12:56:52;;;;;;;3.38;2.72;;;8.80;52.20;;;;;;5033770;28;20107;-59
2021/04/15 12:59:31;;;;;;;6.03;2.85;;;8.90;51.50;;;;;;5022910;28;20037;-59
2021/04/15 13:01:58;;;;;;;5.15;2.40;;;8.90;52.40;;;;;;5022335;28;20048;-59
2021/04/15 13:04:44;;;;;;;3.53;2.38;;;9.20;51.80;;;;;;5028932;28;20033;-60
2021/04/15 13:07:28;;;;;;;5.80;2.50;;;8.90;52.20;;;;;;5024611;28;20156;-58
2021/04/15 13:10:13;;;;;;;3.22;2.92;;;8.90;52.70;;;;;;5017522;28;20029;-61
2021/04/15 13:12:41;;;;;;;3.00;2.38;;;8.90;52.30;;;;;;5024682;28;20095;-60
2021/04/15 13:15:26;;;;;;;2.90;2.08;;;8.80;52.00;;;;;;5033019;28;20033;-58
2021/04/15 13:18:00;;;;;;;2.45;2.17;;;8.50;52.20;;;;;;5031603;28;20025;-59
2021/04/15 13:20:25;;;;;;;2.90;2.30;;;8.30;52.80;;;;;;5032657;28;20025;-56
2021/04/15 13:23:06;;;;;;;2.38;2.00;;;8.30;52.80;;;;;;5032602;28;20512;-60
2021/04/15 13:25:35;;;;;;;5.15;2.92;;;8.30;52.70;;;;;;5029383;28;20080;-59
2021/04/15 13:28:07;;;;;;;3.45;1.95;;;8.50;52.40;;;;;;5035408;28;20049;-58
2021/04/15 13:30:41;;;;;;;2.80;2.20;;;8.40;52.10;;;;;;5031074;28;20041;-57
2021/04/15 13:33:19;;;;;;;4.93;3.00;;;8.40;51.90;;;;;;5037886;28;20037;-60
2021/04/15 13:35:59;;;;;;;3.35;2.40;;;8.30;53.00;;;;;;5033146;28;20065;-60
2021/04/15 13:40:55;;;;;;;3.45;2.17;;;8.70;52.80;;;;;;5031643;28;20048;-60
2021/04/15 13:43:49;;;;;;;3.42;1.98;;;8.50;53.30;;;;;;5058950;28;20037;-59
2021/04/15 13:46:24;;;;;;;3.95;2.17;;;8.50;53.20;;;;;;5019278;28;20045;-59
2021/04/15 13:48:57;;;;;;;;;;;8.50;54.20;;;;;;5035442;28;20520;-57
2021/04/15 13:51:44;;;;;;;3.70;2.00;;;8.70;51.70;;;;;;5031251;28;19909;-58
2021/04/15 13:54:16;;;;;;;3.22;2.20;;;8.80;51.20;;;;;;5032426;28;20121;-57
2021/04/15 13:56:42;;;;;;;3.38;2.30;;;8.90;51.80;;;;;;5032548;28;20033;-59
2021/04/15 14:02:04;;;;;;;2.65;2.03;;;9.10;51.60;;;;;;5044597;28;20044;-59
2021/04/15 14:04:42;;;;;;;4.35;2.00;;;8.60;53.00;;;;;;5037569;28;20068;-59
2021/04/15 14:07:46;;;;;;;4.03;2.22;;;8.40;54.20;;;;;;5023714;28;20425;-58
2021/04/15 14:10:11;;;;;;;4.93;2.40;;;8.20;56.30;;;;;;5013411;28;20045;-59
2021/04/15 14:12:52;;;;;;;3.65;2.20;;;7.90;57.20;;;;;;5022190;28;20021;-59
2021/04/15 14:15:32;;;;;;;3.38;2.50;;;7.80;58.10;;;;;;5034672;28;20045;-60
2021/04/15 14:18:16;;;;;;;4.03;2.40;;;7.90;57.60;;;;;;5032539;28;20057;-59
2021/04/15 14:20:53;;;;;;;4.80;2.50;;;8.00;57.60;;;;;;5032438;28;20142;-54